sensor_id;sensor_type;location;lat;lon;timestamp;P1;durP1;ratioP1;P2;durP2;ratioP2
59766;SDS011;46248;58.364;25.582;2023-05-02T00:01:24;2.65;;;1.70;;
59766;SDS011;46248;58.364;25.582;2023-05-02T00:04:46;4.35;;;2.63;;
59766;SDS011;46248;58.364;25.582;2023-05-02T00:08:09;3.83;;;1.80;;
59766;SDS011;46248;58.364;25.582;2023-05-02T00:11:35;4.70;;;2.45;;
59766;SDS011;46248;58.364;25.582;2023-05-02T00:14:58;4.18;;;1.85;;
59766;SDS011;46248;58.364;25.582;2023-05-02T00:18:21;5.57;;;2.42;;
59766;SDS011;46248;58.364;25.582;2023-05-02T00:21:46;2.13;;;1.90;;
59766;SDS011;46248;58.364;25.582;2023-05-02T00:25:09;3.13;;;2.05;;
59766;SDS011;46248;58.364;25.582;2023-05-02T00:28:37;4.13;;;1.92;;
59766;SDS011;46248;58.364;25.582;2023-05-02T00:32:01;4.47;;;1.90;;
59766;SDS011;46248;58.364;25.582;2023-05-02T00:35:32;4.03;;;2.08;;
59766;SDS011;46248;58.364;25.582;2023-05-02T00:39:13;3.85;;;2.22;;
59766;SDS011;46248;58.364;25.582;2023-05-02T00:42:36;6.13;;;2.30;;
59766;SDS011;46248;58.364;25.582;2023-05-02T00:46:11;5.20;;;1.67;;
59766;SDS011;46248;58.364;25.582;2023-05-02T00:49:35;4.22;;;2.13;;
59766;SDS011;46248;58.364;25.582;2023-05-02T00:53:00;4.78;;;1.60;;
59766;SDS011;46248;58.364;25.582;2023-05-02T00:56:26;3.83;;;1.67;;
59766;SDS011;46248;58.364;25.582;2023-05-02T00:59:51;4.80;;;1.85;;
59766;SDS011;46248;58.364;25.582;2023-05-02T01:03:23;4.22;;;1.88;;
59766;SDS011;46248;58.364;25.582;2023-05-02T01:07:02;4.47;;;1.70;;
59766;SDS011;46248;58.364;25.582;2023-05-02T01:10:40;3.28;;;1.92;;
59766;SDS011;46248;58.364;25.582;2023-05-02T01:14:10;2.55;;;1.80;;
59766;SDS011;46248;58.364;25.582;2023-05-02T01:17:34;3.70;;;1.40;;
59766;SDS011;46248;58.364;25.582;2023-05-02T01:21:01;4.18;;;1.80;;
59766;SDS011;46248;58.364;25.582;2023-05-02T01:24:29;2.92;;;2.15;;
59766;SDS011;46248;58.364;25.582;2023-05-02T01:27:53;3.35;;;2.25;;
59766;SDS011;46248;58.364;25.582;2023-05-02T01:31:25;2.75;;;1.75;;
59766;SDS011;46248;58.364;25.582;2023-05-02T01:34:50;4.57;;;2.20;;
59766;SDS011;46248;58.364;25.582;2023-05-02T01:38:15;4.93;;;1.83;;
59766;SDS011;46248;58.364;25.582;2023-05-02T01:41:40;4.80;;;2.35;;
59766;SDS011;46248;58.364;25.582;2023-05-02T01:45:04;3.53;;;2.00;;
59766;SDS011;46248;58.364;25.582;2023-05-02T01:48:31;4.03;;;2.40;;
59766;SDS011;46248;58.364;25.582;2023-05-02T01:51:54;2.20;;;2.00;;
59766;SDS011;46248;58.364;25.582;2023-05-02T01:55:18;6.20;;;2.60;;
59766;SDS011;46248;58.364;25.582;2023-05-02T01:58:42;4.38;;;2.03;;
59766;SDS011;46248;58.364;25.582;2023-05-02T02:02:06;4.68;;;2.25;;
59766;SDS011;46248;58.364;25.582;2023-05-02T02:05:32;5.10;;;1.90;;
59766;SDS011;46248;58.364;25.582;2023-05-02T02:08:55;3.92;;;1.98;;
59766;SDS011;46248;58.364;25.582;2023-05-02T02:12:21;3.95;;;2.55;;
59766;SDS011;46248;58.364;25.582;2023-05-02T02:15:47;4.20;;;3.10;;
59766;SDS011;46248;58.364;25.582;2023-05-02T02:19:12;3.35;;;1.95;;
59766;SDS011;46248;58.364;25.582;2023-05-02T02:22:38;7.32;;;2.53;;
59766;SDS011;46248;58.364;25.582;2023-05-02T02:26:02;6.63;;;2.50;;
59766;SDS011;46248;58.364;25.582;2023-05-02T02:29:27;4.35;;;2.35;;
59766;SDS011;46248;58.364;25.582;2023-05-02T02:32:50;7.03;;;2.67;;
59766;SDS011;46248;58.364;25.582;2023-05-02T02:36:14;4.18;;;2.22;;
59766;SDS011;46248;58.364;25.582;2023-05-02T02:39:45;5.55;;;2.30;;
59766;SDS011;46248;58.364;25.582;2023-05-02T02:43:19;4.68;;;1.85;;
59766;SDS011;46248;58.364;25.582;2023-05-02T02:46:49;6.25;;;2.10;;
59766;SDS011;46248;58.364;25.582;2023-05-02T02:50:18;6.00;;;2.05;;
59766;SDS011;46248;58.364;25.582;2023-05-02T02:57:17;5.10;;;1.95;;
59766;SDS011;46248;58.364;25.582;2023-05-02T03:00:48;4.57;;;1.98;;
59766;SDS011;46248;58.364;25.582;2023-05-02T03:04:11;4.57;;;2.53;;
59766;SDS011;46248;58.364;25.582;2023-05-02T03:07:37;7.38;;;2.20;;
59766;SDS011;46248;58.364;25.582;2023-05-02T03:11:02;5.15;;;2.03;;
59766;SDS011;46248;58.364;25.582;2023-05-02T03:14:26;5.05;;;2.55;;
59766;SDS011;46248;58.364;25.582;2023-05-02T03:17:49;5.22;;;2.30;;
59766;SDS011;46248;58.364;25.582;2023-05-02T03:21:12;5.55;;;3.25;;
59766;SDS011;46248;58.364;25.582;2023-05-02T03:24:35;3.85;;;2.38;;
59766;SDS011;46248;58.364;25.582;2023-05-02T03:27:59;4.32;;;1.90;;
59766;SDS011;46248;58.364;25.582;2023-05-02T03:31:23;5.30;;;2.40;;
59766;SDS011;46248;58.364;25.582;2023-05-02T03:34:46;3.92;;;2.20;;
59766;SDS011;46248;58.364;25.582;2023-05-02T03:38:09;5.13;;;2.75;;
59766;SDS011;46248;58.364;25.582;2023-05-02T03:41:32;6.63;;;2.60;;
59766;SDS011;46248;58.364;25.582;2023-05-02T03:44:55;4.65;;;2.90;;
59766;SDS011;46248;58.364;25.582;2023-05-02T03:48:19;3.53;;;2.00;;
59766;SDS011;46248;58.364;25.582;2023-05-02T03:51:42;5.80;;;2.13;;
59766;SDS011;46248;58.364;25.582;2023-05-02T03:55:05;4.00;;;2.03;;
59766;SDS011;46248;58.364;25.582;2023-05-02T03:58:31;5.05;;;2.90;;
59766;SDS011;46248;58.364;25.582;2023-05-02T04:01:55;4.32;;;2.53;;
59766;SDS011;46248;58.364;25.582;2023-05-02T04:05:20;5.18;;;2.50;;
59766;SDS011;46248;58.364;25.582;2023-05-02T04:08:43;5.55;;;2.75;;
59766;SDS011;46248;58.364;25.582;2023-05-02T04:12:06;6.00;;;2.00;;
59766;SDS011;46248;58.364;25.582;2023-05-02T04:15:29;5.82;;;2.72;;
59766;SDS011;46248;58.364;25.582;2023-05-02T04:18:52;10.82;;;2.65;;
59766;SDS011;46248;58.364;25.582;2023-05-02T04:22:17;4.05;;;2.30;;
59766;SDS011;46248;58.364;25.582;2023-05-02T04:25:39;3.58;;;2.28;;
59766;SDS011;46248;58.364;25.582;2023-05-02T04:29:02;4.70;;;2.38;;
59766;SDS011;46248;58.364;25.582;2023-05-02T04:32:25;3.55;;;2.50;;
59766;SDS011;46248;58.364;25.582;2023-05-02T04:35:49;4.18;;;2.97;;
59766;SDS011;46248;58.364;25.582;2023-05-02T04:39:13;4.88;;;2.45;;
59766;SDS011;46248;58.364;25.582;2023-05-02T04:42:36;8.25;;;2.50;;
59766;SDS011;46248;58.364;25.582;2023-05-02T04:45:59;5.60;;;3.42;;
59766;SDS011;46248;58.364;25.582;2023-05-02T04:49:22;6.55;;;3.22;;
59766;SDS011;46248;58.364;25.582;2023-05-02T04:52:44;7.70;;;3.00;;
59766;SDS011;46248;58.364;25.582;2023-05-02T04:56:09;6.82;;;2.90;;
59766;SDS011;46248;58.364;25.582;2023-05-02T04:59:32;4.82;;;2.83;;
59766;SDS011;46248;58.364;25.582;2023-05-02T05:02:54;6.75;;;3.42;;
59766;SDS011;46248;58.364;25.582;2023-05-02T05:06:20;5.35;;;3.20;;
59766;SDS011;46248;58.364;25.582;2023-05-02T05:09:44;7.43;;;3.30;;
59766;SDS011;46248;58.364;25.582;2023-05-02T05:13:08;4.47;;;2.20;;
59766;SDS011;46248;58.364;25.582;2023-05-02T05:16:32;3.92;;;2.42;;
59766;SDS011;46248;58.364;25.582;2023-05-02T05:19:54;11.50;;;2.85;;
59766;SDS011;46248;58.364;25.582;2023-05-02T05:23:17;6.13;;;3.42;;
59766;SDS011;46248;58.364;25.582;2023-05-02T05:26:40;8.80;;;3.22;;
59766;SDS011;46248;58.364;25.582;2023-05-02T05:30:05;7.15;;;3.30;;
59766;SDS011;46248;58.364;25.582;2023-05-02T05:33:29;8.00;;;2.92;;
59766;SDS011;46248;58.364;25.582;2023-05-02T05:36:52;5.15;;;3.55;;
59766;SDS011;46248;58.364;25.582;2023-05-02T05:40:15;7.47;;;2.58;;
59766;SDS011;46248;58.364;25.582;2023-05-02T05:43:38;6.65;;;2.90;;
59766;SDS011;46248;58.364;25.582;2023-05-02T05:47:03;5.22;;;2.78;;
59766;SDS011;46248;58.364;25.582;2023-05-02T05:50:26;5.13;;;2.58;;
59766;SDS011;46248;58.364;25.582;2023-05-02T05:53:49;4.78;;;2.75;;
59766;SDS011;46248;58.364;25.582;2023-05-02T05:57:13;7.55;;;3.50;;
59766;SDS011;46248;58.364;25.582;2023-05-02T06:00:39;6.30;;;2.80;;
59766;SDS011;46248;58.364;25.582;2023-05-02T06:04:04;6.28;;;3.03;;
59766;SDS011;46248;58.364;25.582;2023-05-02T06:07:27;7.97;;;2.88;;
59766;SDS011;46248;58.364;25.582;2023-05-02T06:10:50;8.60;;;3.47;;
59766;SDS011;46248;58.364;25.582;2023-05-02T06:14:12;5.35;;;3.05;;
59766;SDS011;46248;58.364;25.582;2023-05-02T06:17:35;8.35;;;3.08;;
59766;SDS011;46248;58.364;25.582;2023-05-02T06:21:03;13.75;;;4.75;;
59766;SDS011;46248;58.364;25.582;2023-05-02T06:24:26;10.17;;;2.97;;
59766;SDS011;46248;58.364;25.582;2023-05-02T06:27:49;5.35;;;2.70;;
59766;SDS011;46248;58.364;25.582;2023-05-02T06:31:13;5.47;;;3.15;;
59766;SDS011;46248;58.364;25.582;2023-05-02T06:34:35;5.90;;;3.10;;
59766;SDS011;46248;58.364;25.582;2023-05-02T06:38:00;6.82;;;2.85;;
59766;SDS011;46248;58.364;25.582;2023-05-02T06:41:23;8.88;;;3.13;;
59766;SDS011;46248;58.364;25.582;2023-05-02T06:44:46;5.32;;;3.45;;
59766;SDS011;46248;58.364;25.582;2023-05-02T06:48:09;7.68;;;3.60;;
59766;SDS011;46248;58.364;25.582;2023-05-02T06:51:32;11.07;;;3.17;;
59766;SDS011;46248;58.364;25.582;2023-05-02T06:54:56;4.50;;;2.80;;
59766;SDS011;46248;58.364;25.582;2023-05-02T06:58:19;6.57;;;2.47;;
59766;SDS011;46248;58.364;25.582;2023-05-02T07:01:42;7.20;;;2.60;;
59766;SDS011;46248;58.364;25.582;2023-05-02T07:05:05;5.22;;;3.42;;
59766;SDS011;46248;58.364;25.582;2023-05-02T07:08:29;5.82;;;2.58;;
59766;SDS011;46248;58.364;25.582;2023-05-02T07:11:54;7.82;;;2.85;;
59766;SDS011;46248;58.364;25.582;2023-05-02T07:15:16;4.07;;;2.55;;
59766;SDS011;46248;58.364;25.582;2023-05-02T07:18:39;7.72;;;2.72;;
59766;SDS011;46248;58.364;25.582;2023-05-02T07:22:02;6.10;;;4.05;;
59766;SDS011;46248;58.364;25.582;2023-05-02T07:25:26;9.13;;;3.22;;
59766;SDS011;46248;58.364;25.582;2023-05-02T07:28:50;4.30;;;2.90;;
59766;SDS011;46248;58.364;25.582;2023-05-02T07:32:13;9.02;;;3.45;;
59766;SDS011;46248;58.364;25.582;2023-05-02T07:35:36;9.27;;;3.03;;
59766;SDS011;46248;58.364;25.582;2023-05-02T07:38:59;4.32;;;2.47;;
59766;SDS011;46248;58.364;25.582;2023-05-02T07:42:21;11.65;;;2.80;;
59766;SDS011;46248;58.364;25.582;2023-05-02T07:45:51;5.53;;;2.20;;
59766;SDS011;46248;58.364;25.582;2023-05-02T07:49:13;5.78;;;2.75;;
59766;SDS011;46248;58.364;25.582;2023-05-02T07:52:37;9.98;;;4.63;;
59766;SDS011;46248;58.364;25.582;2023-05-02T07:56:00;8.32;;;4.53;;
59766;SDS011;46248;58.364;25.582;2023-05-02T07:59:25;10.77;;;4.40;;
59766;SDS011;46248;58.364;25.582;2023-05-02T08:02:49;5.88;;;2.58;;
59766;SDS011;46248;58.364;25.582;2023-05-02T08:06:12;8.30;;;3.22;;
59766;SDS011;46248;58.364;25.582;2023-05-02T08:09:35;8.25;;;4.20;;
59766;SDS011;46248;58.364;25.582;2023-05-02T08:12:58;10.95;;;3.50;;
59766;SDS011;46248;58.364;25.582;2023-05-02T08:16:27;5.97;;;3.15;;
59766;SDS011;46248;58.364;25.582;2023-05-02T08:19:52;5.90;;;2.88;;
59766;SDS011;46248;58.364;25.582;2023-05-02T08:23:16;6.55;;;2.97;;
59766;SDS011;46248;58.364;25.582;2023-05-02T08:26:39;8.20;;;3.13;;
59766;SDS011;46248;58.364;25.582;2023-05-02T08:34:54;3.45;;;2.55;;
59766;SDS011;46248;58.364;25.582;2023-05-02T08:38:17;5.68;;;3.30;;
59766;SDS011;46248;58.364;25.582;2023-05-02T08:41:42;6.80;;;2.92;;
59766;SDS011;46248;58.364;25.582;2023-05-02T08:45:06;4.30;;;2.40;;
59766;SDS011;46248;58.364;25.582;2023-05-02T08:48:34;5.30;;;2.38;;
59766;SDS011;46248;58.364;25.582;2023-05-02T08:51:59;9.85;;;3.08;;
59766;SDS011;46248;58.364;25.582;2023-05-02T08:55:22;7.13;;;2.60;;
59766;SDS011;46248;58.364;25.582;2023-05-02T08:58:47;7.15;;;3.13;;
59766;SDS011;46248;58.364;25.582;2023-05-02T09:02:11;8.18;;;2.88;;
59766;SDS011;46248;58.364;25.582;2023-05-02T09:05:45;7.47;;;3.03;;
59766;SDS011;46248;58.364;25.582;2023-05-02T09:09:15;7.10;;;2.67;;
59766;SDS011;46248;58.364;25.582;2023-05-02T09:12:38;6.10;;;2.58;;
59766;SDS011;46248;58.364;25.582;2023-05-02T09:16:01;4.97;;;3.05;;
59766;SDS011;46248;58.364;25.582;2023-05-02T09:19:25;9.50;;;3.40;;
59766;SDS011;46248;58.364;25.582;2023-05-02T09:22:49;3.70;;;2.63;;
59766;SDS011;46248;58.364;25.582;2023-05-02T09:26:15;4.90;;;2.50;;
59766;SDS011;46248;58.364;25.582;2023-05-02T09:29:40;8.88;;;4.65;;
59766;SDS011;46248;58.364;25.582;2023-05-02T09:33:06;7.65;;;4.05;;
59766;SDS011;46248;58.364;25.582;2023-05-02T09:36:28;8.00;;;2.80;;
59766;SDS011;46248;58.364;25.582;2023-05-02T09:40:05;4.45;;;2.58;;
59766;SDS011;46248;58.364;25.582;2023-05-02T09:43:31;5.82;;;2.88;;
59766;SDS011;46248;58.364;25.582;2023-05-02T09:46:54;7.53;;;2.95;;
59766;SDS011;46248;58.364;25.582;2023-05-02T09:50:31;4.70;;;2.67;;
59766;SDS011;46248;58.364;25.582;2023-05-02T09:53:55;6.05;;;3.03;;
59766;SDS011;46248;58.364;25.582;2023-05-02T09:57:18;3.85;;;2.72;;
59766;SDS011;46248;58.364;25.582;2023-05-02T10:00:43;7.03;;;2.88;;
59766;SDS011;46248;58.364;25.582;2023-05-02T10:04:08;11.52;;;3.70;;
59766;SDS011;46248;58.364;25.582;2023-05-02T10:07:36;6.85;;;2.92;;
59766;SDS011;46248;58.364;25.582;2023-05-02T10:10:59;11.48;;;3.58;;
59766;SDS011;46248;58.364;25.582;2023-05-02T10:14:25;5.93;;;3.53;;
59766;SDS011;46248;58.364;25.582;2023-05-02T10:17:51;7.00;;;3.55;;
59766;SDS011;46248;58.364;25.582;2023-05-02T10:21:16;5.90;;;3.13;;
59766;SDS011;46248;58.364;25.582;2023-05-02T10:24:47;4.32;;;2.83;;
59766;SDS011;46248;58.364;25.582;2023-05-02T10:28:10;6.63;;;3.53;;
59766;SDS011;46248;58.364;25.582;2023-05-02T10:31:35;10.93;;;3.70;;
59766;SDS011;46248;58.364;25.582;2023-05-02T10:35:04;5.40;;;3.15;;
59766;SDS011;46248;58.364;25.582;2023-05-02T10:38:27;8.18;;;3.90;;
59766;SDS011;46248;58.364;25.582;2023-05-02T10:41:51;10.43;;;3.67;;
59766;SDS011;46248;58.364;25.582;2023-05-02T10:45:29;4.03;;;2.70;;
59766;SDS011;46248;58.364;25.582;2023-05-02T10:49:02;7.22;;;3.33;;
59766;SDS011;46248;58.364;25.582;2023-05-02T10:52:27;8.65;;;4.20;;
59766;SDS011;46248;58.364;25.582;2023-05-02T10:56:08;5.65;;;3.20;;
59766;SDS011;46248;58.364;25.582;2023-05-02T10:59:34;5.35;;;3.90;;
59766;SDS011;46248;58.364;25.582;2023-05-02T11:03:00;7.78;;;3.10;;
59766;SDS011;46248;58.364;25.582;2023-05-02T11:06:24;4.97;;;2.53;;
59766;SDS011;46248;58.364;25.582;2023-05-02T11:09:49;7.93;;;2.97;;
59766;SDS011;46248;58.364;25.582;2023-05-02T11:13:12;9.38;;;2.90;;
59766;SDS011;46248;58.364;25.582;2023-05-02T11:20:31;8.25;;;3.03;;
59766;SDS011;46248;58.364;25.582;2023-05-02T11:27:55;8.98;;;3.08;;
59766;SDS011;46248;58.364;25.582;2023-05-02T11:35:24;8.90;;;3.25;;
59766;SDS011;46248;58.364;25.582;2023-05-02T11:38:47;8.18;;;3.00;;
59766;SDS011;46248;58.364;25.582;2023-05-02T11:45:54;8.35;;;2.60;;
59766;SDS011;46248;58.364;25.582;2023-05-02T11:49:20;12.18;;;3.47;;
59766;SDS011;46248;58.364;25.582;2023-05-02T11:52:43;11.80;;;3.45;;
59766;SDS011;46248;58.364;25.582;2023-05-02T11:56:06;8.65;;;3.40;;
59766;SDS011;46248;58.364;25.582;2023-05-02T11:59:29;8.82;;;3.65;;
59766;SDS011;46248;58.364;25.582;2023-05-02T12:02:53;6.47;;;3.95;;
59766;SDS011;46248;58.364;25.582;2023-05-02T12:06:17;3.67;;;2.40;;
59766;SDS011;46248;58.364;25.582;2023-05-02T12:09:49;6.10;;;2.92;;
59766;SDS011;46248;58.364;25.582;2023-05-02T12:13:13;8.00;;;2.95;;
59766;SDS011;46248;58.364;25.582;2023-05-02T12:16:36;4.75;;;2.90;;
59766;SDS011;46248;58.364;25.582;2023-05-02T12:20:00;5.93;;;2.75;;
59766;SDS011;46248;58.364;25.582;2023-05-02T12:23:27;16.70;;;4.97;;
59766;SDS011;46248;58.364;25.582;2023-05-02T12:27:09;14.05;;;4.40;;
59766;SDS011;46248;58.364;25.582;2023-05-02T12:30:33;14.15;;;4.82;;
59766;SDS011;46248;58.364;25.582;2023-05-02T12:33:58;8.38;;;4.38;;
59766;SDS011;46248;58.364;25.582;2023-05-02T12:37:22;14.60;;;3.60;;
59766;SDS011;46248;58.364;25.582;2023-05-02T12:40:47;7.13;;;2.65;;
59766;SDS011;46248;58.364;25.582;2023-05-02T12:44:11;6.28;;;2.25;;
59766;SDS011;46248;58.364;25.582;2023-05-02T12:47:43;4.38;;;2.20;;
59766;SDS011;46248;58.364;25.582;2023-05-02T12:51:15;2.28;;;1.13;;
59766;SDS011;46248;58.364;25.582;2023-05-02T12:54:44;2.15;;;1.02;;
59766;SDS011;46248;58.364;25.582;2023-05-02T12:58:08;1.67;;;1.38;;
59766;SDS011;46248;58.364;25.582;2023-05-02T13:01:32;1.58;;;0.80;;
59766;SDS011;46248;58.364;25.582;2023-05-02T13:04:55;0.73;;;0.73;;
59766;SDS011;46248;58.364;25.582;2023-05-02T13:08:19;0.82;;;0.82;;
59766;SDS011;46248;58.364;25.582;2023-05-02T13:11:43;1.02;;;1.00;;
59766;SDS011;46248;58.364;25.582;2023-05-02T13:15:06;0.60;;;0.60;;
59766;SDS011;46248;58.364;25.582;2023-05-02T13:18:30;14.05;;;0.93;;
59766;SDS011;46248;58.364;25.582;2023-05-02T13:21:52;1.30;;;0.65;;
59766;SDS011;46248;58.364;25.582;2023-05-02T13:25:15;0.65;;;0.65;;
59766;SDS011;46248;58.364;25.582;2023-05-02T13:28:39;1.08;;;0.90;;
59766;SDS011;46248;58.364;25.582;2023-05-02T13:32:02;2.40;;;0.63;;
59766;SDS011;46248;58.364;25.582;2023-05-02T13:35:25;0.60;;;0.60;;
59766;SDS011;46248;58.364;25.582;2023-05-02T13:38:54;0.57;;;0.50;;
59766;SDS011;46248;58.364;25.582;2023-05-02T13:42:18;2.88;;;2.00;;
59766;SDS011;46248;58.364;25.582;2023-05-02T13:45:43;2.00;;;1.90;;
59766;SDS011;46248;58.364;25.582;2023-05-02T13:49:07;1.35;;;1.30;;
59766;SDS011;46248;58.364;25.582;2023-05-02T13:52:30;1.60;;;1.50;;
59766;SDS011;46248;58.364;25.582;2023-05-02T13:55:53;0.70;;;0.70;;
59766;SDS011;46248;58.364;25.582;2023-05-02T13:59:16;2.15;;;0.73;;
59766;SDS011;46248;58.364;25.582;2023-05-02T14:02:40;1.23;;;1.13;;
59766;SDS011;46248;58.364;25.582;2023-05-02T14:06:03;1.17;;;0.85;;
59766;SDS011;46248;58.364;25.582;2023-05-02T14:09:25;1.27;;;0.80;;
59766;SDS011;46248;58.364;25.582;2023-05-02T14:12:48;1.60;;;1.00;;
59766;SDS011;46248;58.364;25.582;2023-05-02T14:16:12;1.83;;;0.70;;
59766;SDS011;46248;58.364;25.582;2023-05-02T14:19:37;0.80;;;0.80;;
59766;SDS011;46248;58.364;25.582;2023-05-02T14:23:00;2.88;;;2.10;;
59766;SDS011;46248;58.364;25.582;2023-05-02T14:26:26;1.45;;;0.73;;
59766;SDS011;46248;58.364;25.582;2023-05-02T14:29:51;1.08;;;0.98;;
59766;SDS011;46248;58.364;25.582;2023-05-02T14:33:14;0.98;;;0.90;;
59766;SDS011;46248;58.364;25.582;2023-05-02T14:36:39;0.63;;;0.63;;
59766;SDS011;46248;58.364;25.582;2023-05-02T14:40:02;2.08;;;1.40;;
59766;SDS011;46248;58.364;25.582;2023-05-02T14:43:25;1.60;;;1.15;;
59766;SDS011;46248;58.364;25.582;2023-05-02T14:46:48;0.77;;;0.73;;
59766;SDS011;46248;58.364;25.582;2023-05-02T14:50:15;2.28;;;0.82;;
59766;SDS011;46248;58.364;25.582;2023-05-02T14:53:41;0.88;;;0.70;;
59766;SDS011;46248;58.364;25.582;2023-05-02T14:57:03;0.63;;;0.63;;
59766;SDS011;46248;58.364;25.582;2023-05-02T15:00:27;2.08;;;1.33;;
59766;SDS011;46248;58.364;25.582;2023-05-02T15:03:49;0.70;;;0.70;;
59766;SDS011;46248;58.364;25.582;2023-05-02T15:07:26;1.75;;;0.65;;
59766;SDS011;46248;58.364;25.582;2023-05-02T15:10:50;0.82;;;0.73;;
59766;SDS011;46248;58.364;25.582;2023-05-02T15:14:15;1.75;;;0.73;;
59766;SDS011;46248;58.364;25.582;2023-05-02T15:17:38;0.70;;;0.70;;
59766;SDS011;46248;58.364;25.582;2023-05-02T15:21:01;1.38;;;0.28;;
59766;SDS011;46248;58.364;25.582;2023-05-02T15:24:23;0.30;;;0.25;;
59766;SDS011;46248;58.364;25.582;2023-05-02T15:27:48;0.60;;;0.30;;
59766;SDS011;46248;58.364;25.582;2023-05-02T15:31:14;3.35;;;1.35;;
59766;SDS011;46248;58.364;25.582;2023-05-02T15:34:37;2.10;;;0.70;;
59766;SDS011;46248;58.364;25.582;2023-05-02T15:38:00;1.42;;;1.08;;
59766;SDS011;46248;58.364;25.582;2023-05-02T15:41:23;1.40;;;0.60;;
59766;SDS011;46248;58.364;25.582;2023-05-02T15:44:50;1.23;;;0.50;;
59766;SDS011;46248;58.364;25.582;2023-05-02T15:48:13;1.98;;;1.23;;
59766;SDS011;46248;58.364;25.582;2023-05-02T15:51:36;3.38;;;1.60;;
59766;SDS011;46248;58.364;25.582;2023-05-02T15:54:59;1.77;;;1.42;;
59766;SDS011;46248;58.364;25.582;2023-05-02T15:58:22;3.03;;;1.10;;
59766;SDS011;46248;58.364;25.582;2023-05-02T16:01:46;2.85;;;0.93;;
59766;SDS011;46248;58.364;25.582;2023-05-02T16:05:09;0.85;;;0.80;;
59766;SDS011;46248;58.364;25.582;2023-05-02T16:08:32;1.27;;;0.88;;
59766;SDS011;46248;58.364;25.582;2023-05-02T16:11:55;0.90;;;0.40;;
59766;SDS011;46248;58.364;25.582;2023-05-02T16:15:19;0.85;;;0.70;;
59766;SDS011;46248;58.364;25.582;2023-05-02T16:18:44;0.43;;;0.40;;
59766;SDS011;46248;58.364;25.582;2023-05-02T16:22:07;1.48;;;0.50;;
59766;SDS011;46248;58.364;25.582;2023-05-02T16:25:30;0.43;;;0.40;;
59766;SDS011;46248;58.364;25.582;2023-05-02T16:28:53;0.80;;;0.60;;
59766;SDS011;46248;58.364;25.582;2023-05-02T16:32:16;0.50;;;0.50;;
59766;SDS011;46248;58.364;25.582;2023-05-02T16:35:44;1.58;;;0.50;;
59766;SDS011;46248;58.364;25.582;2023-05-02T16:39:08;1.42;;;0.50;;
59766;SDS011;46248;58.364;25.582;2023-05-02T16:42:31;1.48;;;0.98;;
59766;SDS011;46248;58.364;25.582;2023-05-02T16:45:58;0.90;;;0.90;;
59766;SDS011;46248;58.364;25.582;2023-05-02T16:49:22;1.55;;;1.35;;
59766;SDS011;46248;58.364;25.582;2023-05-02T16:52:46;1.30;;;1.25;;
59766;SDS011;46248;58.364;25.582;2023-05-02T16:56:09;1.40;;;1.00;;
59766;SDS011;46248;58.364;25.582;2023-05-02T16:59:31;2.00;;;1.40;;
59766;SDS011;46248;58.364;25.582;2023-05-02T17:02:54;3.10;;;2.90;;
59766;SDS011;46248;58.364;25.582;2023-05-02T17:06:18;2.92;;;2.05;;
59766;SDS011;46248;58.364;25.582;2023-05-02T17:09:42;4.55;;;3.08;;
59766;SDS011;46248;58.364;25.582;2023-05-02T17:13:05;3.50;;;1.58;;
59766;SDS011;46248;58.364;25.582;2023-05-02T17:16:28;4.13;;;2.97;;
59766;SDS011;46248;58.364;25.582;2023-05-02T17:19:53;2.60;;;2.00;;
59766;SDS011;46248;58.364;25.582;2023-05-02T17:23:15;1.58;;;1.48;;
59766;SDS011;46248;58.364;25.582;2023-05-02T17:26:40;1.13;;;0.95;;
59766;SDS011;46248;58.364;25.582;2023-05-02T17:30:03;1.05;;;0.88;;
59766;SDS011;46248;58.364;25.582;2023-05-02T17:33:27;1.85;;;1.50;;
59766;SDS011;46248;58.364;25.582;2023-05-02T17:36:50;2.20;;;1.38;;
59766;SDS011;46248;58.364;25.582;2023-05-02T17:40:13;5.35;;;2.65;;
59766;SDS011;46248;58.364;25.582;2023-05-02T17:43:38;2.95;;;1.73;;
59766;SDS011;46248;58.364;25.582;2023-05-02T17:47:02;2.60;;;1.25;;
59766;SDS011;46248;58.364;25.582;2023-05-02T17:50:26;1.77;;;1.08;;
59766;SDS011;46248;58.364;25.582;2023-05-02T17:53:49;0.95;;;0.95;;
59766;SDS011;46248;58.364;25.582;2023-05-02T17:57:12;6.03;;;5.45;;
59766;SDS011;46248;58.364;25.582;2023-05-02T18:00:37;2.75;;;1.20;;
59766;SDS011;46248;58.364;25.582;2023-05-02T18:03:59;1.33;;;1.00;;
59766;SDS011;46248;58.364;25.582;2023-05-02T18:07:24;2.25;;;2.05;;
59766;SDS011;46248;58.364;25.582;2023-05-02T18:10:49;2.22;;;2.03;;
59766;SDS011;46248;58.364;25.582;2023-05-02T18:14:12;2.88;;;1.27;;
59766;SDS011;46248;58.364;25.582;2023-05-02T18:17:36;1.17;;;1.17;;
59766;SDS011;46248;58.364;25.582;2023-05-02T18:21:00;1.30;;;1.20;;
59766;SDS011;46248;58.364;25.582;2023-05-02T18:24:23;1.00;;;0.90;;
59766;SDS011;46248;58.364;25.582;2023-05-02T18:27:47;1.20;;;1.10;;
59766;SDS011;46248;58.364;25.582;2023-05-02T18:31:14;3.45;;;1.20;;
59766;SDS011;46248;58.364;25.582;2023-05-02T18:34:38;1.02;;;0.90;;
59766;SDS011;46248;58.364;25.582;2023-05-02T18:38:03;1.48;;;0.82;;
59766;SDS011;46248;58.364;25.582;2023-05-02T18:41:27;1.58;;;1.00;;
59766;SDS011;46248;58.364;25.582;2023-05-02T18:44:50;1.10;;;0.90;;
59766;SDS011;46248;58.364;25.582;2023-05-02T18:48:12;1.90;;;1.20;;
59766;SDS011;46248;58.364;25.582;2023-05-02T18:51:36;1.75;;;0.77;;
59766;SDS011;46248;58.364;25.582;2023-05-02T18:54:59;3.60;;;1.10;;
59766;SDS011;46248;58.364;25.582;2023-05-02T18:58:23;1.85;;;0.80;;
59766;SDS011;46248;58.364;25.582;2023-05-02T19:01:46;2.60;;;1.40;;
59766;SDS011;46248;58.364;25.582;2023-05-02T19:05:09;6.75;;;1.30;;
59766;SDS011;46248;58.364;25.582;2023-05-02T19:08:33;5.28;;;1.48;;
59766;SDS011;46248;58.364;25.582;2023-05-02T19:11:56;1.13;;;0.90;;
59766;SDS011;46248;58.364;25.582;2023-05-02T19:15:19;2.38;;;1.20;;
59766;SDS011;46248;58.364;25.582;2023-05-02T19:18:43;2.28;;;1.60;;
59766;SDS011;46248;58.364;25.582;2023-05-02T19:22:07;1.17;;;0.90;;
59766;SDS011;46248;58.364;25.582;2023-05-02T19:25:31;1.70;;;1.40;;
59766;SDS011;46248;58.364;25.582;2023-05-02T19:28:55;4.47;;;1.20;;
59766;SDS011;46248;58.364;25.582;2023-05-02T19:32:18;1.75;;;1.33;;
59766;SDS011;46248;58.364;25.582;2023-05-02T19:35:41;3.10;;;1.42;;
59766;SDS011;46248;58.364;25.582;2023-05-02T19:39:04;2.10;;;1.45;;
59766;SDS011;46248;58.364;25.582;2023-05-02T19:42:29;2.47;;;1.40;;
59766;SDS011;46248;58.364;25.582;2023-05-02T19:45:51;2.53;;;1.48;;
59766;SDS011;46248;58.364;25.582;2023-05-02T19:49:14;1.50;;;1.23;;
59766;SDS011;46248;58.364;25.582;2023-05-02T19:52:37;1.65;;;1.15;;
59766;SDS011;46248;58.364;25.582;2023-05-02T19:56:01;3.08;;;1.58;;
59766;SDS011;46248;58.364;25.582;2023-05-02T19:59:28;1.50;;;1.38;;
59766;SDS011;46248;58.364;25.582;2023-05-02T20:02:51;0.98;;;0.85;;
59766;SDS011;46248;58.364;25.582;2023-05-02T20:06:14;4.20;;;1.48;;
59766;SDS011;46248;58.364;25.582;2023-05-02T20:09:38;2.90;;;1.55;;
59766;SDS011;46248;58.364;25.582;2023-05-02T20:13:00;3.83;;;1.48;;
59766;SDS011;46248;58.364;25.582;2023-05-02T20:16:25;3.90;;;1.67;;
59766;SDS011;46248;58.364;25.582;2023-05-02T20:19:51;3.10;;;1.58;;
59766;SDS011;46248;58.364;25.582;2023-05-02T20:23:13;2.17;;;1.38;;
59766;SDS011;46248;58.364;25.582;2023-05-02T20:26:36;4.75;;;3.08;;
59766;SDS011;46248;58.364;25.582;2023-05-02T20:29:59;2.25;;;1.35;;
59766;SDS011;46248;58.364;25.582;2023-05-02T20:33:23;1.75;;;1.40;;
59766;SDS011;46248;58.364;25.582;2023-05-02T20:37:03;2.85;;;1.80;;